Time;durP1;ratioP1;P1;durP2;ratioP2;P2;SDS_P1;SDS_P2;PMS_P1;PMS_P2;Temp;Humidity;BMP_temperature;BMP_pressure;BME280_temperature;BME280_humidity;BME280_pressure;Samples;Min_cycle;Max_cycle;Signal;HPM_P1;HPM_P2
2023/07/15 00:01:23;;;;;;;16.20;8.80;;;;;;;20.52;74.71;99012.98;80807;1294;3050328;-63
2023/07/15 00:03:51;;;;;;;12.20;7.90;;;;;;;20.23;75.63;99002.40;82078;1294;3011212;-63
2023/07/15 00:06:21;;;;;;;9.60;6.60;;;;;;;20.07;76.23;99005.20;80795;1294;3069405;-65
2023/07/15 00:08:47;;;;;;;11.50;6.60;;;;;;;19.86;76.97;99006.47;82068;1294;3011596;-62
2023/07/15 00:11:43;;;;;;;11.00;6.90;;;;;;;19.72;77.45;99009.08;82090;1294;3011744;-61
2023/07/15 00:14:18;;;;;;;9.20;5.20;;;;;;;19.64;78.61;99006.38;80803;1295;3052634;-63
2023/07/15 00:16:47;;;;;;;7.80;5.10;;;;;;;20.01;76.93;99007.27;81529;1294;3011139;-64
2023/07/15 00:19:14;;;;;;;13.50;6.20;;;;;;;20.14;75.97;99003.88;82056;1294;3018275;-62
2023/07/15 00:21:40;;;;;;;15.10;10.30;;;;;;;20.00;76.33;99008.62;82057;1294;3011167;-63
2023/07/15 00:24:08;;;;;;;20.80;11.30;;;;;;;19.70;77.37;99017.92;80817;1294;3026677;-63
2023/07/15 00:26:37;;;;;;;24.30;11.40;;;;;;;19.48;78.00;99015.99;82081;1294;3012329;-63
2023/07/15 00:29:04;;;;;;;19.20;10.90;;;;;;;19.45;78.15;99012.70;82014;1293;3011112;-65
2023/07/15 00:31:35;;;;;;;25.00;10.10;;;;;;;19.55;78.46;99020.91;80742;1295;3052259;-64
2023/07/15 00:34:03;;;;;;;19.00;10.40;;;;;;;19.85;77.01;99015.49;82065;1294;3013002;-62
2023/07/15 00:36:31;;;;;;;17.30;7.30;;;;;;;19.90;76.56;99019.20;82030;1296;3011213;-63
2023/07/15 00:39:00;;;;;;;12.50;6.30;;;;;;;19.77;77.05;99020.52;80759;1298;3067272;-62
2023/07/15 00:41:29;;;;;;;13.80;5.90;;;;;;;19.58;77.75;99018.34;82021;1294;3018004;-61
2023/07/15 00:43:56;;;;;;;9.90;6.20;;;;;;;19.55;77.78;99017.06;81959;1294;3011231;-62
2023/07/15 00:46:50;;;;;;;11.80;6.70;;;;;;;19.31;78.61;99021.73;80767;1294;3054237;-63
2023/07/15 00:49:24;;;;;;;11.00;5.80;;;;;;;19.21;79.48;99023.02;80765;1294;3050770;-63
2023/07/15 00:52:02;;;;;;;12.90;7.40;;;;;;;19.74;77.58;99021.82;81989;1294;3011218;-62
2023/07/15 00:54:35;;;;;;;15.50;8.60;;;;;;;19.86;76.43;99025.89;80731;1296;3052332;-62
2023/07/15 00:57:02;;;;;;;20.10;10.70;;;;;;;19.76;76.52;99025.08;82086;1294;3011721;-62
2023/07/15 00:59:30;;;;;;;23.00;11.70;;;;;;;19.60;76.85;99028.00;80727;1294;3050057;-62
2023/07/15 01:01:57;;;;;;;24.00;11.80;;;;;;;19.36;77.72;99033.17;82022;1294;3012800;-63
2023/07/15 01:04:29;;;;;;;20.40;11.00;;;;;;;19.27;77.82;99029.83;81564;1294;3011329;-63
2023/07/15 01:06:58;;;;;;;14.20;9.30;;;;;;;19.21;78.42;99026.59;82174;1292;3011497;-62
2023/07/15 01:09:28;;;;;;;16.80;9.50;;;;;;;19.68;76.51;99030.95;80822;1294;3026942;-64
2023/07/15 01:11:55;;;;;;;19.20;10.10;;;;;;;19.75;75.95;99033.27;82154;1293;3013277;-63
2023/07/15 01:14:21;;;;;;;25.90;12.40;;;;;;;19.80;75.42;99028.10;82040;1294;3011064;-61
2023/07/15 01:16:49;;;;;;;36.30;14.70;;;;;;;19.68;75.87;99031.30;80827;1294;3050600;-62
2023/07/15 01:19:19;;;;;;;34.00;13.90;;;;;;;19.53;76.22;99041.17;82137;1293;3012317;-62
2023/07/15 01:21:49;;;;;;;30.30;14.10;;;;;;;19.37;76.64;99047.89;81571;1295;3011203;-62
2023/07/15 01:24:20;;;;;;;30.90;12.60;;;;;;;19.06;77.88;99050.54;82095;1294;3012521;-63
2023/07/15 01:26:55;;;;;;;22.80;10.60;;;;;;;18.97;78.44;99055.02;80844;1293;3051436;-63
2023/07/15 01:29:24;;;;;;;23.80;10.30;;;;;;;19.47;76.85;99058.48;81566;1294;3011050;-62
2023/07/15 01:31:50;;;;;;;21.70;10.10;;;;;;;19.63;75.74;99048.71;82146;1293;3018185;-61
2023/07/15 01:34:19;;;;;;;16.20;9.60;;;;;;;19.54;75.90;99055.03;82101;1294;3011090;-61
2023/07/15 01:36:48;;;;;;;19.10;9.20;;;;;;;19.40;75.95;99047.53;80754;1294;3056365;-63
2023/07/15 01:39:15;;;;;;;18.40;9.20;;;;;;;19.17;76.93;99051.69;82098;1294;3011032;-63
2023/07/15 01:41:45;;;;;;;15.40;8.10;;;;;;;19.00;77.42;99054.33;81518;1294;3011535;-62
2023/07/15 01:44:12;;;;;;;14.60;8.80;;;;;;;18.89;78.02;99056.81;82142;1294;3013311;-63
2023/07/15 01:46:39;;;;;;;13.60;8.70;;;;;;;19.29;77.06;99060.73;82115;1294;3011186;-62
2023/07/15 01:49:07;;;;;;;20.60;9.60;;;;;;;19.62;75.32;99066.07;80771;1294;3026552;-64
2023/07/15 01:51:37;;;;;;;14.80;8.70;;;;;;;19.51;75.41;99070.42;82153;1294;3018085;-62
2023/07/15 01:54:06;;;;;;;13.60;7.10;;;;;;;19.30;76.09;99067.77;81500;1294;3011196;-62
2023/07/15 01:56:32;;;;;;;16.80;7.90;;;;;;;19.15;76.36;99070.48;82058;1294;3018768;-61
2023/07/15 01:58:59;;;;;;;15.90;8.00;;;;;;;19.00;76.92;99067.64;82066;1294;3011182;-63
2023/07/15 02:01:30;;;;;;;19.20;10.20;;;;;;;18.89;77.10;99070.72;80803;1298;3052584;-61
2023/07/15 02:03:56;;;;;;;15.50;8.30;;;;;;;18.88;77.49;99069.70;82063;1294;3012723;-64
2023/07/15 02:06:24;;;;;;;16.30;8.50;;;;;;;19.26;76.48;99065.02;82106;1293;3011210;-62
2023/07/15 02:08:52;;;;;;;15.10;8.10;;;;;;;19.51;75.07;99072.27;80812;1294;3057085;-62
2023/07/15 02:11:19;;;;;;;20.40;10.60;;;;;;;19.52;75.09;99072.45;82132;1293;3011074;-64
2023/07/15 02:16:46;;;;;;;28.70;14.20;;;;;;;19.21;76.24;99081.84;79896;1301;3012926;-64
2023/07/15 02:19:13;;;;;;;22.90;13.10;;;;;;;18.95;77.30;99084.80;78821;1301;3020865;-63
2023/07/15 02:21:41;;;;;;;22.10;11.20;;;;;;;18.89;78.16;99086.27;78803;1303;3011935;-62
2023/07/15 02:24:09;;;;;;;19.80;10.10;;;;;;;19.24;77.13;99087.38;77662;1314;3052084;-62
2023/07/15 02:26:35;;;;;;;13.70;7.90;;;;;;;19.69;75.39;99089.48;78905;1305;3013541;-63
2023/07/15 02:29:03;;;;;;;13.70;7.90;;;;;;;19.59;75.11;99088.71;76996;1301;3011772;-63
2023/07/15 02:31:31;;;;;;;17.00;7.00;;;;;;;19.33;76.04;99092.63;77888;1303;3026234;-62
2023/07/15 02:33:57;;;;;;;13.30;7.40;;;;;;;19.04;76.97;99093.52;79208;1299;3013036;-62
2023/07/15 02:36:24;;;;;;;13.10;7.20;;;;;;;18.90;77.49;99094.31;79213;1303;3013984;-63
2023/07/15 02:38:52;;;;;;;13.30;5.70;;;;;;;18.78;78.16;99096.77;78013;1298;3026549;-64
2023/07/15 02:41:18;;;;;;;14.30;7.20;;;;;;;19.24;77.14;99099.10;79172;1303;3020556;-62
2023/07/15 02:43:45;;;;;;;15.10;7.30;;;;;;;19.41;75.95;99098.23;79289;1298;3013342;-62
2023/07/15 02:46:13;;;;;;;16.60;7.50;;;;;;;19.35;76.01;99103.68;77971;1298;3026311;-63
2023/07/15 02:48:40;;;;;;;16.50;9.40;;;;;;;19.13;76.69;99120.46;79173;1298;3013565;-62
2023/07/15 02:51:07;;;;;;;15.10;8.70;;;;;;;18.94;77.39;99111.16;79264;1302;3011736;-65
2023/07/15 02:53:34;;;;;;;16.50;8.70;;;;;;;18.87;77.44;99115.10;78124;1301;3027260;-63
2023/07/15 02:56:01;;;;;;;18.80;7.80;;;;;;;18.71;78.79;99128.16;79147;1302;3013223;-63
2023/07/15 02:58:29;;;;;;;14.20;7.30;;;;;;;19.15;77.39;99125.17;79178;1303;3011615;-64
2023/07/15 03:00:57;;;;;;;15.20;7.80;;;;;;;19.31;76.34;99129.97;77991;1295;3026578;-62
2023/07/15 03:03:25;;;;;;;15.50;7.80;;;;;;;19.35;75.84;99127.98;79331;1294;3013757;-63
2023/07/15 03:05:54;;;;;;;12.20;7.10;;;;;;;19.13;76.32;99126.48;79270;1294;3012022;-64
2023/07/15 03:08:22;;;;;;;14.00;8.80;;;;;;;18.98;77.11;99128.33;78132;1298;3053384;-62
2023/07/15 03:10:49;;;;;;;13.30;8.80;;;;;;;18.82;77.39;99128.34;79304;1295;3013398;-62
2023/07/15 03:13:16;;;;;;;11.50;7.00;;;;;;;18.69;78.29;99123.98;79223;1298;3011943;-65
2023/07/15 03:15:45;;;;;;;13.50;5.90;;;;;;;19.14;76.41;99128.52;78358;1300;3048608;-62
2023/07/15 03:18:11;;;;;;;14.70;8.10;;;;;;;19.40;75.05;99127.25;79340;1300;3020842;-66
2023/07/15 03:20:38;;;;;;;17.00;6.30;;;;;;;19.47;74.35;99128.69;79135;1300;3011827;-64
2023/07/15 03:23:06;;;;;;;18.60;6.90;;;;;;;19.42;74.68;99132.09;77957;1300;3025430;-63
2023/07/15 03:25:33;;;;;;;16.60;7.40;;;;;;;19.27;75.32;99140.52;79124;1300;3013938;-60
2023/07/15 03:28:00;;;;;;;14.00;8.00;;;;;;;19.04;75.96;99136.26;79253;1300;3011928;-61
2023/07/15 03:30:28;;;;;;;9.70;5.90;;;;;;;19.06;76.35;99131.77;78207;1298;3025288;-62
2023/07/15 03:32:56;;;;;;;16.30;6.70;;;;;;;19.41;74.45;99145.84;79332;1297;3013024;-61
2023/07/15 03:35:23;;;;;;;14.40;8.00;;;;;;;19.47;74.54;99144.13;79311;1297;3011178;-63
2023/07/15 03:37:51;;;;;;;19.20;10.70;;;;;;;19.49;74.27;99141.25;78030;1300;3052663;-63
2023/07/15 03:40:17;;;;;;;21.50;11.20;;;;;;;19.39;74.51;99147.27;79347;1297;3013533;-64
2023/07/15 03:42:44;;;;;;;23.70;11.40;;;;;;;19.27;75.05;99151.30;79195;1296;3013230;-62
2023/07/15 03:45:12;;;;;;;17.40;9.10;;;;;;;19.18;75.41;99154.38;78076;1300;3027568;-62
2023/07/15 03:47:41;;;;;;;20.30;8.00;;;;;;;19.20;75.07;99157.86;79358;1298;3011782;-62
2023/07/15 03:50:11;;;;;;;23.30;9.30;;;;;;;19.65;74.25;99161.12;79240;1298;3012415;-60
2023/07/15 03:52:41;;;;;;;21.40;10.30;;;;;;;20.00;72.83;99161.25;78086;1300;3053586;-62
2023/07/15 03:55:08;;;;;;;20.40;10.90;;;;;;;19.88;72.56;99163.38;79307;1298;3012906;-63
2023/07/15 03:57:35;;;;;;;16.60;9.60;;;;;;;19.68;73.25;99171.96;79271;1297;3012304;-61
2023/07/15 04:00:13;;;;;;;16.20;8.20;;;;;;;19.57;73.75;99174.93;78043;1297;3048949;-62
2023/07/15 04:02:46;;;;;;;17.90;10.50;;;;;;;19.29;74.65;99180.39;78183;1298;3053055;-64
2023/07/15 04:05:13;;;;;;;19.20;10.80;;;;;;;19.09;75.69;99177.28;79286;1297;3013252;-61
2023/07/15 04:07:40;;;;;;;18.20;9.70;;;;;;;19.15;76.22;99186.10;79305;1300;3011854;-64
2023/07/15 04:10:09;;;;;;;15.70;8.80;;;;;;;19.57;74.89;99187.74;78001;1298;3068307;-62
2023/07/15 04:12:35;;;;;;;20.30;9.80;;;;;;;19.97;73.24;99189.27;79485;1298;3013538;-61
2023/07/15 04:15:03;;;;;;;18.50;9.50;;;;;;;20.02;72.69;99195.55;79234;1299;3014078;-64
2023/07/15 04:17:31;;;;;;;15.80;8.40;;;;;;;19.90;72.82;99202.77;78326;1298;3053409;-61
2023/07/15 04:19:57;;;;;;;17.50;8.00;;;;;;;19.69;73.70;99204.96;79384;1300;3013019;-61
2023/07/15 04:22:24;;;;;;;15.40;8.60;;;;;;;19.44;74.93;99200.95;79300;1297;3012079;-63
2023/07/15 04:24:52;;;;;;;24.70;10.50;;;;;;;19.36;75.25;99197.52;78163;1297;3029658;-63
2023/07/15 04:27:18;;;;;;;14.90;7.00;;;;;;;19.33;75.71;99207.05;79330;1298;3018715;-62
2023/07/15 04:29:45;;;;;;;15.60;7.30;;;;;;;19.85;73.74;99199.80;79350;1300;3011581;-62
2023/07/15 04:32:13;;;;;;;19.80;7.80;;;;;;;20.09;72.64;99202.33;78008;1300;3029467;-61
2023/07/15 04:34:40;;;;;;;12.50;7.10;;;;;;;20.17;72.30;99204.24;79342;1297;3011565;-60
2023/07/15 04:37:06;;;;;;;11.70;6.10;;;;;;;20.06;72.39;99202.04;79256;1297;3013584;-62
2023/07/15 04:39:34;;;;;;;15.30;9.70;;;;;;;19.87;73.31;99206.48;78202;1298;3028674;-62
2023/07/15 04:42:01;;;;;;;15.10;7.60;;;;;;;19.69;73.84;99204.02;79314;1296;3013839;-61
2023/07/15 04:44:27;;;;;;;18.20;9.10;;;;;;;19.62;74.05;99207.94;79279;1296;3011422;-62
2023/07/15 04:46:55;;;;;;;15.90;6.50;;;;;;;19.50;74.80;99208.13;78176;1299;3028994;-62
2023/07/15 04:49:23;;;;;;;15.70;8.50;;;;;;;20.03;73.31;99209.41;79461;1300;3013275;-62
2023/07/15 04:51:50;;;;;;;18.30;9.30;;;;;;;20.57;71.12;99215.36;79237;1300;3012935;-63
2023/07/15 04:54:18;;;;;;;20.10;10.20;;;;;;;20.67;70.48;99210.92;78097;1300;3068277;-60
2023/07/15 04:56:45;;;;;;;25.20;12.10;;;;;;;20.67;70.32;99217.13;79233;1296;3012788;-63
2023/07/15 04:59:11;;;;;;;21.20;11.30;;;;;;;20.53;70.59;99216.21;79276;1300;3011607;-62
2023/07/15 05:01:39;;;;;;;19.20;10.40;;;;;;;20.36;71.10;99221.16;78032;1300;3026771;-62
2023/07/15 05:04:06;;;;;;;17.00;9.30;;;;;;;20.30;71.35;99223.86;79376;1300;3018513;-62
2023/07/15 05:06:33;;;;;;;15.00;8.20;;;;;;;20.12;71.71;99223.49;79272;1298;3011672;-65
2023/07/15 05:09:04;;;;;;;13.90;7.70;;;;;;;20.16;71.54;99222.34;78210;1298;3027440;-65
2023/07/15 05:11:31;;;;;;;15.10;7.10;;;;;;;20.13;71.61;99222.84;79406;1299;3012691;-61
2023/07/15 05:13:59;;;;;;;13.10;6.10;;;;;;;20.13;71.73;99229.26;79425;1296;3027141;-62
2023/07/15 05:16:26;;;;;;;15.70;6.80;;;;;;;20.60;70.58;99227.21;81871;1297;3018933;-63
2023/07/15 05:18:53;;;;;;;14.00;8.50;;;;;;;21.08;68.88;99228.12;81853;1298;3011449;-62
2023/07/15 05:21:21;;;;;;;13.10;6.90;;;;;;;21.23;68.06;99230.05;79428;1297;3026382;-61
2023/07/15 05:23:48;;;;;;;13.70;7.40;;;;;;;21.25;68.10;99230.39;79328;1300;3014855;-63
2023/07/15 05:26:15;;;;;;;12.60;5.10;;;;;;;21.00;67.85;99238.39;79347;1298;3011880;-64
2023/07/15 05:28:44;;;;;;;12.50;5.40;;;;;;;20.90;68.04;99245.93;78074;1297;3055300;-61
2023/07/15 05:31:10;;;;;;;11.20;5.80;;;;;;;20.81;68.35;99244.52;79265;1296;3012871;-62
2023/07/15 05:33:37;;;;;;;11.90;4.80;;;;;;;20.70;68.65;99247.63;79300;1297;3011445;-62
2023/07/15 05:36:07;;;;;;;7.00;3.90;;;;;;;20.68;69.21;99242.34;78159;1300;3051938;-63
2023/07/15 05:38:42;;;;;;;8.40;3.40;;;;;;;20.67;68.85;99242.25;79371;1300;3013015;-64
2023/07/15 05:41:11;;;;;;;9.40;4.50;;;;;;;20.65;69.21;99244.94;78064;1299;3050184;-61
2023/07/15 05:43:38;;;;;;;7.30;4.20;;;;;;;20.61;69.69;99251.20;79351;1300;3013214;-64
2023/07/15 05:46:04;;;;;;;8.10;3.50;;;;;;;20.63;69.50;99251.70;79432;1298;3012064;-60
2023/07/15 05:48:32;;;;;;;9.00;3.10;;;;;;;20.71;69.96;99257.46;78037;1299;3050659;-65
2023/07/15 05:50:59;;;;;;;5.40;3.00;;;;;;;21.34;68.09;99256.27;79346;1297;3012899;-66
2023/07/15 05:53:25;;;;;;;11.00;4.80;;;;;;;21.83;66.09;99263.20;79367;1300;3011664;-65
2023/07/15 05:55:53;;;;;;;12.60;6.50;;;;;;;22.10;64.98;99264.30;78271;1296;3027319;-63
2023/07/15 05:58:20;;;;;;;12.20;6.80;;;;;;;22.06;64.66;99269.26;79237;1296;3013496;-65
2023/07/15 06:00:46;;;;;;;17.00;6.90;;;;;;;21.91;64.65;99273.38;79268;1297;3013294;-67
2023/07/15 06:03:14;;;;;;;10.80;6.30;;;;;;;21.67;64.70;99276.20;77999;1300;3028810;-63
2023/07/15 06:05:43;;;;;;;13.30;5.40;;;;;;;21.55;64.76;99275.20;79321;1299;3012872;-63
2023/07/15 06:08:09;;;;;;;10.50;4.70;;;;;;;21.54;64.85;99273.60;79374;1296;3013520;-62
2023/07/15 06:10:37;;;;;;;9.90;4.80;;;;;;;21.47;64.19;99281.45;78006;1300;3051000;-62
2023/07/15 06:13:07;;;;;;;7.30;3.60;;;;;;;21.42;64.92;99281.11;79408;1296;3011830;-64
2023/07/15 06:15:38;;;;;;;12.10;3.20;;;;;;;21.45;65.51;99281.08;77992;1300;3026750;-64
2023/07/15 06:18:07;;;;;;;8.80;2.90;;;;;;;21.47;64.97;99291.55;79329;1299;3013254;-63
2023/07/15 06:20:38;;;;;;;9.80;4.60;;;;;;;21.51;64.44;99289.23;78109;1300;3048875;-63
2023/07/15 06:23:04;;;;;;;8.90;5.20;;;;;;;21.41;64.51;99294.70;79368;1297;3013550;-63
2023/07/15 06:25:31;;;;;;;10.30;6.50;;;;;;;21.46;64.23;99292.76;79305;1298;3013902;-64
2023/07/15 06:27:59;;;;;;;12.30;5.80;;;;;;;21.55;63.57;99286.27;78183;1300;3051914;-62
2023/07/15 06:30:26;;;;;;;13.80;4.90;;;;;;;21.63;63.21;99291.45;79389;1295;3013762;-62
2023/07/15 06:32:52;;;;;;;11.90;5.20;;;;;;;21.71;62.53;99291.14;79319;1300;3011681;-62
2023/07/15 06:35:21;;;;;;;15.90;6.80;;;;;;;21.83;62.49;99293.31;78002;1299;3029200;-62
2023/07/15 06:37:48;;;;;;;16.90;6.70;;;;;;;21.85;61.79;99286.57;79360;1299;3012712;-62
2023/07/15 06:40:16;;;;;;;7.00;4.00;;;;;;;21.88;60.37;99291.40;79423;1296;3011581;-64
2023/07/15 06:42:44;;;;;;;14.00;4.70;;;;;;;21.75;59.45;99294.21;78102;1297;3051673;-62
2023/07/15 06:45:11;;;;;;;10.00;4.80;;;;;;;21.77;59.91;99295.27;79413;1297;3013592;-63
2023/07/15 06:47:38;;;;;;;7.60;3.60;;;;;;;21.89;59.76;99292.50;79358;1296;3011882;-64
2023/07/15 06:50:07;;;;;;;7.30;3.50;;;;;;;22.05;59.29;99297.85;78104;1298;3049721;-62
2023/07/15 06:52:34;;;;;;;7.40;3.50;;;;;;;22.14;58.95;99298.17;79372;1300;3013741;-63
2023/07/15 06:55:02;;;;;;;7.20;3.30;;;;;;;22.29;58.53;99302.83;79339;1300;3011932;-63
2023/07/15 06:57:31;;;;;;;8.30;3.30;;;;;;;22.28;57.95;99296.93;78040;1296;3051171;-63
2023/07/15 06:59:58;;;;;;;7.00;3.70;;;;;;;22.26;57.29;99307.15;79329;1298;3013788;-63
2023/07/15 07:02:26;;;;;;;7.00;3.40;;;;;;;22.31;58.03;99301.23;79376;1297;3011943;-62
2023/07/15 07:04:54;;;;;;;5.60;3.40;;;;;;;22.26;57.32;99307.64;78006;1298;3049888;-62
2023/07/15 07:07:23;;;;;;;9.30;3.30;;;;;;;22.31;57.70;99308.54;79316;1297;3013077;-64
2023/07/15 07:09:52;;;;;;;7.20;2.10;;;;;;;22.33;56.32;99307.77;78718;1297;3011694;-63
2023/07/15 07:12:19;;;;;;;6.90;2.50;;;;;;;22.41;56.14;99301.87;79397;1296;3021130;-64
2023/07/15 07:14:46;;;;;;;5.30;2.30;;;;;;;22.57;55.08;99298.27;79301;1296;3011772;-63
2023/07/15 07:17:14;;;;;;;4.90;2.20;;;;;;;22.70;54.77;99294.00;78206;1296;3049737;-64
2023/07/15 07:19:42;;;;;;;13.00;2.10;;;;;;;22.77;53.98;99304.64;79282;1297;3013912;-63
2023/07/15 07:22:08;;;;;;;4.00;2.00;;;;;;;22.78;53.49;99300.55;79340;1298;3011891;-63
2023/07/15 07:24:36;;;;;;;6.50;2.20;;;;;;;22.56;53.95;99307.88;78035;1300;3052048;-64
2023/07/15 07:27:04;;;;;;;4.90;2.20;;;;;;;22.57;53.90;99307.58;79336;1299;3018629;-63
2023/07/15 07:29:31;;;;;;;6.90;2.50;;;;;;;22.64;54.40;99301.32;79257;1298;3011847;-64
2023/07/15 07:31:59;;;;;;;2.30;2.00;;;;;;;22.72;54.16;99302.14;78088;1300;3050085;-63
2023/07/15 07:34:25;;;;;;;5.30;2.50;;;;;;;22.73;54.64;99306.20;79223;1300;3013724;-63
2023/07/15 07:36:52;;;;;;;6.80;2.00;;;;;;;22.89;54.13;99300.95;79264;1296;3013282;-63
2023/07/15 07:39:20;;;;;;;9.40;2.90;;;;;;;22.96;53.92;99298.50;78129;1297;3028931;-64
2023/07/15 07:41:46;;;;;;;5.20;2.80;;;;;;;22.97;53.79;99304.89;79449;1295;3012743;-63
2023/07/15 07:44:13;;;;;;;9.00;2.40;;;;;;;23.00;53.67;99306.52;79300;1295;3011600;-65
2023/07/15 07:46:41;;;;;;;5.10;2.00;;;;;;;23.09;53.76;99306.70;78174;1297;3028168;-64
2023/07/15 07:49:08;;;;;;;4.10;1.90;;;;;;;23.02;53.43;99309.08;79442;1298;3013166;-65
2023/07/15 07:51:34;;;;;;;6.50;3.50;;;;;;;23.09;53.44;99310.30;79406;1297;3014116;-63
2023/07/15 07:54:02;;;;;;;6.60;2.60;;;;;;;23.13;53.72;99309.65;78117;1299;3028008;-61
2023/07/15 07:56:29;;;;;;;8.10;2.20;;;;;;;23.22;52.45;99315.55;79335;1297;3020533;-62
2023/07/15 07:58:58;;;;;;;10.30;2.30;;;;;;;23.07;52.37;99313.66;79363;1296;3011687;-63
2023/07/15 08:01:26;;;;;;;5.30;1.90;;;;;;;23.16;52.11;99312.98;78105;1299;3049411;-62
2023/07/15 08:03:53;;;;;;;2.50;1.60;;;;;;;23.19;52.25;99317.55;79386;1296;3013101;-64
2023/07/15 08:06:20;;;;;;;4.60;1.80;;;;;;;23.33;51.68;99310.17;79368;1299;3011883;-62
2023/07/15 08:08:48;;;;;;;5.60;2.40;;;;;;;23.45;50.86;99309.31;78217;1300;3026149;-62
2023/07/15 08:11:15;;;;;;;4.00;1.80;;;;;;;23.49;49.89;99315.35;79366;1299;3021248;-62
2023/07/15 08:13:41;;;;;;;4.40;2.20;;;;;;;23.48;49.94;99309.56;79327;1297;3011567;-63
2023/07/15 08:16:35;;;;;;;5.10;1.90;;;;;;;23.62;49.59;99311.30;78334;1296;3028679;-62
2023/07/15 08:19:04;;;;;;;4.60;1.60;;;;;;;23.71;49.28;99310.96;78092;1296;3053831;-61
2023/07/15 08:21:31;;;;;;;4.60;1.50;;;;;;;23.74;48.04;99318.41;79431;1300;3013027;-63
2023/07/15 08:23:57;;;;;;;7.00;1.80;;;;;;;23.77;48.20;99310.77;79297;1300;3013703;-64
2023/07/15 08:26:25;;;;;;;3.80;1.70;;;;;;;23.87;48.08;99307.99;78210;1297;3067529;-63
2023/07/15 08:28:52;;;;;;;4.50;1.90;;;;;;;23.88;47.80;99311.48;79438;1298;3013398;-63
2023/07/15 08:31:19;;;;;;;5.20;2.50;;;;;;;24.01;48.56;99311.16;79341;1297;3011777;-63
2023/07/15 08:33:47;;;;;;;5.00;1.80;;;;;;;24.07;47.86;99314.55;78152;1296;3054263;-61
2023/07/15 08:36:14;;;;;;;3.50;1.20;;;;;;;24.08;46.92;99311.71;79330;1300;3018837;-63
2023/07/15 08:38:41;;;;;;;5.70;1.80;;;;;;;24.19;46.75;99310.29;79310;1298;3013572;-61
2023/07/15 08:41:09;;;;;;;2.70;1.60;;;;;;;24.16;47.46;99316.66;78043;1299;3028520;-63
2023/07/15 08:46:01;;;;;;;4.40;1.70;;;;;;;24.37;47.20;99303.64;80136;1304;3015661;-62
2023/07/15 08:48:29;;;;;;;5.10;1.50;;;;;;;24.48;47.51;99306.78;79216;1304;3011555;-64
2023/07/15 08:50:59;;;;;;;3.70;1.70;;;;;;;24.69;47.49;99300.68;78511;1306;3012918;-64
2023/07/15 08:53:27;;;;;;;4.80;1.90;;;;;;;24.66;47.29;99302.79;79164;1304;3014958;-63
2023/07/15 08:55:58;;;;;;;4.30;1.90;;;;;;;24.74;46.89;99303.42;79070;1302;3012775;-65
2023/07/15 08:58:26;;;;;;;3.10;1.80;;;;;;;24.60;46.54;99306.91;75799;1304;5919936;-63
2023/07/15 09:00:53;;;;;;;6.80;1.60;;;;;;;24.61;46.72;99307.87;79205;1304;3013162;-64
2023/07/15 09:03:21;;;;;;;6.70;1.90;;;;;;;24.67;46.27;99309.33;79170;1303;3011770;-64
2023/07/15 09:05:49;;;;;;;3.90;1.50;;;;;;;24.75;46.36;99308.21;77981;1301;3050178;-65
2023/07/15 09:08:16;;;;;;;8.40;1.90;;;;;;;24.81;46.26;99305.86;79548;1303;3020526;-64
2023/07/15 09:10:55;;;;;;;5.20;2.30;;;;;;;24.72;46.39;99303.63;79210;1304;3011486;-61
2023/07/15 09:13:27;;;;;;;5.10;1.80;;;;;;;25.00;45.46;99301.00;77999;1304;3050610;-63
2023/07/15 09:15:54;;;;;;;4.40;1.70;;;;;;;25.15;45.36;99319.52;79219;1302;3011814;-63
2023/07/15 09:18:22;;;;;;;4.10;2.00;;;;;;;24.90;45.25;99306.98;78119;1298;3048719;-61
2023/07/15 09:20:49;;;;;;;5.90;1.60;;;;;;;24.93;45.02;99308.42;79377;1297;3013821;-65
2023/07/15 09:23:18;;;;;;;4.00;1.50;;;;;;;24.94;44.23;99308.02;79320;1301;3011206;-63
2023/07/15 09:25:54;;;;;;;6.40;2.00;;;;;;;25.12;43.29;99306.41;78069;1301;3052493;-63
2023/07/15 09:28:22;;;;;;;5.20;2.10;;;;;;;25.32;43.23;99311.54;78052;1301;3068822;-63
2023/07/15 09:30:48;;;;;;;4.30;1.90;;;;;;;25.36;43.18;99305.25;79438;1298;3018925;-64
2023/07/15 09:33:42;;;;;;;9.50;2.00;;;;;;;25.57;42.91;99301.63;79289;1301;3011657;-64
2023/07/15 09:36:10;;;;;;;2.80;1.60;;;;;;;25.41;42.39;99314.16;78066;1298;3054285;-63
2023/07/15 09:38:38;;;;;;;3.10;1.30;;;;;;;25.31;42.21;99312.15;79222;1304;3013252;-63
2023/07/15 09:41:07;;;;;;;3.10;1.80;;;;;;;25.33;42.45;99310.43;79304;1301;3013423;-62
2023/07/15 09:43:46;;;;;;;4.20;1.70;;;;;;;25.37;42.73;99312.00;78226;1301;3068214;-63
2023/07/15 09:46:15;;;;;;;2.70;1.50;;;;;;;25.23;43.30;99321.70;78073;1298;3052407;-63
2023/07/15 09:48:46;;;;;;;6.00;1.80;;;;;;;25.23;42.73;99307.05;79385;1295;3012791;-63
2023/07/15 09:51:15;;;;;;;2.80;1.80;;;;;;;25.32;41.53;99321.50;78127;1300;3050034;-62
2023/07/15 09:53:43;;;;;;;5.20;1.60;;;;;;;25.43;41.27;99314.42;79404;1295;3013548;-65
2023/07/15 09:56:12;;;;;;;4.40;1.90;;;;;;;25.54;41.31;99321.52;78847;1298;3013240;-62
2023/07/15 09:58:41;;;;;;;3.90;2.00;;;;;;;25.62;41.13;99323.02;79370;1300;3015167;-64
2023/07/15 10:01:11;;;;;;;4.50;1.90;;;;;;;25.70;41.27;99316.30;79296;1299;3012136;-64
2023/07/15 10:03:43;;;;;;;9.20;1.60;;;;;;;25.80;40.70;99316.41;78191;1298;3051686;-64
2023/07/15 10:06:10;;;;;;;8.90;1.80;;;;;;;25.73;40.78;99315.66;79260;1300;3011886;-64
2023/07/15 10:08:38;;;;;;;2.90;1.40;;;;;;;25.77;40.51;99323.05;78281;1298;3028640;-63
2023/07/15 10:11:06;;;;;;;6.90;1.70;;;;;;;25.87;40.08;99319.36;79516;1296;3012775;-65
2023/07/15 10:13:33;;;;;;;3.00;1.10;;;;;;;25.92;40.16;99316.73;79336;1299;3011943;-63
2023/07/15 10:16:01;;;;;;;6.60;1.30;;;;;;;25.94;40.02;99322.42;78012;1301;3053968;-66
2023/07/15 10:18:31;;;;;;;6.10;1.30;;;;;;;25.91;39.76;99313.39;79313;1301;3013172;-63
2023/07/15 10:21:05;;;;;;;5.50;1.50;;;;;;;25.94;40.13;99318.79;78753;1297;3011880;-63
2023/07/15 10:23:32;;;;;;;4.30;1.40;;;;;;;25.79;40.77;99317.81;79329;1298;3013526;-62
2023/07/15 10:26:05;;;;;;;9.30;1.60;;;;;;;25.97;41.04;99313.27;78133;1300;3049544;-63
2023/07/15 10:28:33;;;;;;;;;;;;;;;26.03;40.60;99317.60;79225;1298;3011666;-63
2023/07/15 10:31:08;;;;;;;2.80;1.70;;;;;;;26.02;40.64;99315.86;78148;1300;3049172;-65
2023/07/15 10:33:51;;;;;;;6.80;1.70;;;;;;;25.75;40.39;99311.01;78026;1300;3052989;-62
2023/07/15 10:36:45;;;;;;;6.40;2.20;;;;;;;26.01;40.39;99311.08;78154;1301;3053070;-61
2023/07/15 10:39:19;;;;;;;2.60;1.70;;;;;;;26.01;39.16;99311.80;78007;1299;3069675;-63
2023/07/15 10:41:52;;;;;;;6.60;2.50;;;;;;;26.27;39.07;99305.15;78743;1297;3013015;-62
2023/07/15 10:44:22;;;;;;;3.50;1.90;;;;;;;26.23;38.45;99309.92;79285;1298;3011495;-65
2023/07/15 10:46:52;;;;;;;3.60;1.30;;;;;;;26.13;38.63;99311.23;78144;1299;3055735;-62
2023/07/15 10:49:21;;;;;;;3.10;1.70;;;;;;;26.27;39.07;99315.45;79576;1298;3013780;-64
2023/07/15 10:51:54;;;;;;;3.90;1.60;;;;;;;26.34;38.72;99305.30;78929;1298;3011622;-63
2023/07/15 10:54:26;;;;;;;4.60;1.90;;;;;;;26.39;38.73;99306.55;79246;1298;3011742;-63
2023/07/15 10:56:54;;;;;;;3.00;1.70;;;;;;;26.50;39.23;99309.88;77984;1301;3052677;-62
2023/07/15 10:59:25;;;;;;;3.00;1.90;;;;;;;26.60;39.39;99309.25;79328;1298;3013545;-63
2023/07/15 11:01:52;;;;;;;10.30;2.00;;;;;;;26.82;39.06;99306.45;77930;1297;3052654;-64
2023/07/15 11:04:20;;;;;;;3.30;1.70;;;;;;;26.57;38.88;99308.75;79317;1297;3013829;-61
2023/07/15 11:06:46;;;;;;;3.00;1.10;;;;;;;26.59;38.28;99320.81;79269;1301;3011487;-64
2023/07/15 11:09:15;;;;;;;5.00;1.40;;;;;;;26.42;36.83;99314.11;78051;1300;3028539;-65
2023/07/15 11:11:43;;;;;;;4.50;2.20;;;;;;;26.37;36.77;99308.08;79291;1297;3012893;-64
2023/07/15 11:14:23;;;;;;;3.80;1.80;;;;;;;26.78;36.77;99301.84;79284;1299;3011668;-65
2023/07/15 11:16:52;;;;;;;3.10;1.50;;;;;;;27.05;36.72;99308.26;78044;1300;3051260;-64
2023/07/15 11:19:20;;;;;;;2.70;1.50;;;;;;;27.19;36.46;99307.19;79323;1298;3014723;-64
2023/07/15 11:21:47;;;;;;;2.70;1.10;;;;;;;27.06;36.26;99308.59;79283;1296;3011913;-63
2023/07/15 11:24:15;;;;;;;4.10;1.40;;;;;;;26.95;36.43;99300.97;78057;1300;3049861;-61